Time;durP1;ratioP1;P1;durP2;ratioP2;P2;SDS_P1;SDS_P2;PMS_P1;PMS_P2;Temp;Humidity;BMP_temperature;BMP_pressure;BME280_temperature;BME280_humidity;BME280_pressure;Samples;Min_cycle;Max_cycle;Signal;HPM_P1;HPM_P2
2023/03/12 00:00:15;;;;;;;;;9.25;9.00;;;;;10.80;80.05;100652.31;5080195;28;45316;-61
2023/03/12 00:02:40;;;;;;;;;7.00;7.00;;;;;10.81;80.49;100661.22;5079732;28;45320;-59
2023/03/12 00:05:06;;;;;;;;;9.50;9.50;;;;;10.71;81.11;100671.56;5079429;28;56595;-59
2023/03/12 00:07:31;;;;;;;;;11.25;10.00;;;;;10.68;80.84;100673.50;5079623;28;45326;-59
2023/03/12 00:09:57;;;;;;;;;10.25;10.25;;;;;10.71;80.76;100673.34;5079650;28;45329;-60
2023/03/12 00:12:22;;;;;;;;;10.00;10.00;;;;;10.81;79.95;100677.31;5079648;28;45384;-58
2023/03/12 00:14:47;;;;;;;;;17.00;12.00;;;;;10.76;80.45;100661.47;5079708;28;46284;-62
2023/03/12 00:17:13;;;;;;;;;8.00;7.25;;;;;10.75;80.98;100675.81;5079596;28;48459;-58
2023/03/12 00:19:38;;;;;;;;;13.50;11.75;;;;;10.83;79.90;100662.91;5079925;28;45458;-60
2023/03/12 00:22:03;;;;;;;;;7.00;7.00;;;;;10.06;80.54;100522.75;5079059;28;45345;-60
2023/03/12 00:24:29;;;;;;;;;11.25;9.75;;;;;10.90;80.28;100640.19;5079206;28;46308;-58
2023/03/12 00:26:54;;;;;;;;;11.75;11.75;;;;;10.90;79.91;100620.56;5079340;28;45351;-62
2023/03/12 00:29:19;;;;;;;;;10.50;9.00;;;;;11.00;79.57;100622.72;5080074;28;45438;-62
2023/03/12 05:33:33;;;;;;;;;6.50;3.25;;;;;11.72;74.04;100852.69;5076418;28;45837;-60
2023/03/12 05:35:58;;;;;;;;;3.50;2.00;;;;;11.78;73.37;100873.91;5079271;28;53866;-60
2023/03/12 05:38:24;;;;;;;;;8.25;5.50;;;;;11.77;73.61;100869.47;5081951;28;45383;-59
2023/03/12 05:40:58;;;;;;;;;4.00;2.75;;;;;11.71;73.76;100878.69;5081885;28;45307;-59
2023/03/12 05:43:24;;;;;;;;;3.75;2.00;;;;;11.70;73.75;100871.56;5063262;28;45301;-60
2023/03/12 05:45:50;;;;;;;;;3.75;2.00;;;;;11.68;73.41;100883.31;5063870;28;46591;-60
2023/03/12 05:48:15;;;;;;;;;7.00;3.00;;;;;11.69;73.53;100869.81;5081496;28;46188;-59
2023/03/12 05:50:41;;;;;;;;;3.50;3.00;;;;;11.67;73.13;100871.72;5081337;27;45333;-60
2023/03/12 05:53:06;;;;;;;;;8.25;2.50;;;;;11.72;72.85;100876.88;5081920;27;45947;-59
2023/03/12 05:55:36;;;;;;;;;2.25;2.25;;;;;11.71;73.45;100877.81;5081841;28;45551;-60
2023/03/12 05:58:03;;;;;;;;;8.75;1.75;;;;;11.81;73.13;100894.38;5081323;27;46278;-60
2023/03/12 06:00:30;;;;;;;;;8.50;3.50;;;;;11.69;73.47;100879.69;5081761;28;45273;-59
2023/03/12 06:02:55;;;;;;;;;11.75;2.00;;;;;11.67;73.72;100893.19;5081769;28;45367;-58
2023/03/12 06:05:20;;;;;;;;;13.00;4.00;;;;;11.73;73.40;100902.78;5081309;28;53070;-59
2023/03/12 06:07:45;;;;;;;;;4.50;4.50;;;;;11.70;73.74;100901.13;5081394;28;45362;-58
2023/03/12 06:10:11;;;;;;;;;4.50;2.75;;;;;11.71;73.59;100902.84;5063410;28;45395;-59
2023/03/12 06:12:36;;;;;;;;;4.00;2.00;;;;;11.66;74.12;100918.31;5081704;28;45194;-60
2023/03/12 06:15:02;;;;;;;;;2.00;2.00;;;;;11.66;74.55;100918.31;5081586;28;45241;-60
2023/03/12 06:17:30;;;;;;;;;3.75;2.50;;;;;11.61;74.40;100914.97;5081168;28;45449;-59
2023/03/12 06:19:56;;;;;;;;;10.25;3.75;;;;;11.55;74.44;100904.53;5081379;27;45349;-58
2023/03/12 06:22:21;;;;;;;;;4.50;3.50;;;;;11.66;74.76;100914.75;5081395;27;45330;-59
2023/03/12 06:24:47;;;;;;;;;6.75;4.00;;;;;11.67;74.68;100916.50;5073129;27;45509;-60
2023/03/12 06:27:13;;;;;;;;;4.50;3.50;;;;;11.75;74.45;100922.41;5081492;28;45563;-60
2023/03/12 06:29:39;;;;;;;;;4.75;3.75;;;;;11.69;74.59;100907.41;5081562;28;45261;-59
2023/03/12 06:32:04;;;;;;;;;5.75;3.50;;;;;11.68;74.43;100902.13;5081154;28;45284;-60
2023/03/12 06:34:29;;;;;;;;;7.50;5.00;;;;;11.70;74.56;100903.78;5080843;28;45423;-60
2023/03/12 06:36:55;;;;;;;;;4.50;3.00;;;;;11.69;74.64;100895.81;5079726;28;46225;-58
2023/03/12 06:39:20;;;;;;;;;6.00;3.00;;;;;11.77;74.18;100901.72;5078623;28;51843;-59
2023/03/12 06:41:45;;;;;;;;;8.00;2.75;;;;;11.75;74.38;100901.78;5079665;28;45427;-60
2023/03/12 06:44:11;;;;;;;;;2.50;2.50;;;;;11.70;74.60;100900.25;5079443;28;48851;-60
2023/03/12 06:46:36;;;;;;;;;9.00;3.00;;;;;11.68;74.87;100904.81;5079038;28;53951;-60
2023/03/12 06:49:02;;;;;;;;;7.00;2.00;;;;;11.64;74.63;100906.78;5079358;28;45593;-59
2023/03/12 06:51:27;;;;;;;;;5.00;4.00;;;;;11.77;74.64;100930.38;5079530;28;45300;-59
2023/03/12 06:53:53;;;;;;;;;10.00;4.00;;;;;11.74;74.74;100943.00;5079417;28;45544;-59
2023/03/12 06:56:18;;;;;;;;;11.75;2.00;;;;;11.81;74.47;100943.63;5079185;28;45304;-60
2023/03/12 06:58:44;;;;;;;;;4.50;2.25;;;;;11.71;74.75;100927.03;5079327;28;45321;-58
2023/03/12 07:01:09;;;;;;;;;8.00;4.50;;;;;11.60;74.72;100918.59;5079439;28;45331;-59
2023/03/12 07:03:35;;;;;;;;;5.50;3.00;;;;;11.75;74.72;100943.88;5079363;28;45367;-59
2023/03/12 07:06:00;;;;;;;;;3.75;3.00;;;;;11.74;74.88;100944.78;5079083;28;45238;-59
2023/03/12 07:08:29;;;;;;;;;3.75;3.75;;;;;11.77;74.47;100950.06;5079656;28;52250;-59
2023/03/12 07:10:56;;;;;;;;;9.75;4.00;;;;;11.73;74.75;100945.75;5080657;28;45221;-59
2023/03/12 07:13:21;;;;;;;;;3.00;3.00;;;;;11.65;74.72;100929.97;5080769;28;45265;-60
2023/03/12 07:15:47;;;;;;;;;5.25;3.50;;;;;11.69;74.71;100939.66;5080002;28;56133;-59
2023/03/12 07:18:13;;;;;;;;;10.50;4.00;;;;;11.73;74.78;100945.75;5080248;28;45334;-59
2023/03/12 07:20:41;;;;;;;;;6.75;3.00;;;;;11.63;74.46;100923.84;5061825;28;45340;-58
2023/03/12 07:23:07;;;;;;;;;7.50;4.75;;;;;11.83;74.25;100951.56;5077361;28;45534;-57
2023/03/12 07:25:37;;;;;;;;;6.75;3.00;;;;;11.81;74.06;100948.13;5079780;28;45539;-60
2023/03/12 07:28:03;;;;;;;;;5.50;2.00;;;;;11.81;74.01;100945.44;5079939;28;45261;-60
2023/03/12 07:30:32;;;;;;;;;7.00;4.75;;;;;11.78;74.18;100942.88;5080557;28;45344;-59
2023/03/12 07:33:01;;;;;;;;;4.50;1.75;;;;;11.73;74.18;100965.44;5080167;28;46178;-59
2023/03/12 07:35:26;;;;;;;;;3.25;3.00;;;;;11.75;73.75;100974.31;5080027;28;45378;-60
2023/03/12 07:37:52;;;;;;;;;8.75;4.50;;;;;11.77;74.00;100968.88;5080237;28;45312;-58
2023/03/12 07:40:17;;;;;;;;;7.25;2.75;;;;;11.90;73.84;100988.84;5080024;28;45523;-60
2023/03/12 07:42:43;;;;;;;;;8.50;4.00;;;;;11.88;73.27;100988.03;5080201;28;45266;-60
2023/03/12 07:45:08;;;;;;;;;2.50;1.50;;;;;11.93;73.08;100986.00;5079629;28;55968;-59
2023/03/12 07:47:34;;;;;;;;;9.75;4.50;;;;;12.03;73.43;100994.50;5079933;28;45311;-60
2023/03/12 07:50:00;;;;;;;;;2.25;2.25;;;;;12.05;72.76;100987.25;5080055;28;45278;-60
2023/03/12 07:52:26;;;;;;;;;6.50;5.00;;;;;12.04;72.74;100994.44;5080226;27;45465;-60
2023/03/12 07:54:53;;;;;;;;;9.25;3.75;;;;;12.05;72.99;100988.09;5079798;27;45166;-60
2023/03/12 07:57:18;;;;;;;;;7.50;3.00;;;;;12.14;72.20;100992.16;5080105;27;45486;-62
2023/03/12 07:59:45;;;;;;;;;4.25;2.75;;;;;12.19;72.41;101000.00;5060928;28;45339;-62
2023/03/12 08:02:11;;;;;;;;;4.00;4.00;;;;;12.18;71.71;100985.69;5080111;28;45365;-60
2023/03/12 08:04:36;;;;;;;;;9.00;3.00;;;;;12.33;72.05;100997.53;5079600;28;45441;-59
2023/03/12 08:07:03;;;;;;;;;6.50;4.00;;;;;12.36;71.52;100998.22;5080063;28;45457;-60
2023/03/12 08:09:28;;;;;;;;;5.75;4.75;;;;;12.30;71.09;100973.47;5079838;28;45426;-60
2023/03/12 08:11:53;;;;;;;;;3.25;2.75;;;;;12.45;71.21;100972.69;5079331;28;57399;-61
2023/03/12 08:14:19;;;;;;;;;6.00;2.75;;;;;12.45;70.45;100987.03;5079529;28;45350;-59
2023/03/12 08:16:44;;;;;;;;;5.25;3.00;;;;;12.48;70.67;100986.88;5061549;28;45359;-60
2023/03/12 08:19:10;;;;;;;;;3.75;3.50;;;;;12.51;70.06;100984.00;5078990;28;45277;-60
2023/03/12 08:21:35;;;;;;;;;5.00;2.00;;;;;12.53;70.16;100975.88;5078318;28;45376;-61
2023/03/12 08:24:01;;;;;;;;;2.00;2.00;;;;;12.58;70.12;100976.53;5079343;28;46608;-60
2023/03/12 08:26:26;;;;;;;;;5.25;3.00;;;;;12.47;70.18;100969.00;5079304;28;45359;-59
2023/03/12 08:28:51;;;;;;;;;7.25;4.25;;;;;12.60;70.45;100976.44;5061390;28;45285;-60
2023/03/12 08:31:16;;;;;;;;;8.00;3.00;;;;;12.65;69.92;100980.66;5079354;28;45441;-59
2023/03/12 08:33:42;;;;;;;;;2.50;2.25;;;;;12.34;69.54;100916.78;5079090;28;48018;-59
2023/03/12 08:36:09;;;;;;;;;4.50;4.00;;;;;12.81;69.04;100984.31;5079664;28;45350;-59
2023/03/12 08:38:34;;;;;;;;;5.75;4.25;;;;;12.86;68.95;101000.19;5079524;28;45333;-62
2023/03/12 08:41:00;;;;;;;;;8.00;3.00;;;;;12.90;68.84;100999.09;5079372;28;45390;-61
2023/03/12 08:43:26;;;;;;;;;2.00;2.00;;;;;12.95;68.42;101005.09;5079198;28;46300;-64
2023/03/12 08:45:57;;;;;;;;;6.00;4.00;;;;;12.89;67.86;101013.50;5079417;28;45338;-60
2023/03/12 08:48:22;;;;;;;;;2.75;2.75;;;;;12.94;68.14;101010.56;5079062;28;46318;-60
2023/03/12 08:50:47;;;;;;;;;11.25;4.75;;;;;13.04;67.57;101025.28;5078978;28;54446;-64
2023/03/12 08:53:13;;;;;;;;;5.25;5.25;;;;;13.10;67.00;101042.00;5078652;28;55898;-62
2023/03/12 08:55:38;;;;;;;;;7.75;2.50;;;;;13.14;67.32;101029.28;5079052;28;45394;-60
2023/03/12 08:58:03;;;;;;;;;4.00;2.00;;;;;13.18;66.33;101029.03;5079212;28;45346;-61
2023/03/12 09:00:29;;;;;;;;;6.25;3.00;;;;;13.34;66.08;101033.66;5079116;28;51436;-63
2023/03/12 09:02:57;;;;;;;;;3.50;2.25;;;;;13.40;66.32;101018.03;5077988;28;45360;-61
2023/03/12 09:05:23;;;;;;;;;4.75;1.00;;;;;13.55;64.60;101032.50;5078941;28;45334;-61
2023/03/12 09:07:48;;;;;;;;;7.75;2.50;;;;;13.72;65.13;101035.16;5078910;28;45233;-61
2023/03/12 09:10:14;;;;;;;;;6.50;3.75;;;;;13.80;64.39;101038.28;5079700;28;45499;-61
2023/03/12 09:12:40;;;;;;;;;12.75;3.00;;;;;13.75;63.16;101031.41;5081814;28;45309;-62
2023/03/12 09:15:06;;;;;;;;;6.00;3.25;;;;;13.74;62.55;101030.56;5082276;28;45300;-61
2023/03/12 09:17:32;;;;;;;;;10.75;3.75;;;;;13.80;62.12;101043.69;5082486;28;45779;-62
2023/03/12 09:19:57;;;;;;;;;4.75;3.75;;;;;13.81;61.71;101041.84;5082475;28;45433;-60
2023/03/12 09:22:22;;;;;;;;;8.75;4.50;;;;;13.77;61.46;101053.78;5081648;28;45353;-61
2023/03/12 09:24:48;;;;;;;;;5.25;3.00;;;;;13.65;61.14;101039.13;5081709;28;45262;-62
2023/03/12 09:27:13;;;;;;;;;5.00;5.00;;;;;13.64;60.48;101030.19;5082370;28;45394;-61
2023/03/12 09:29:38;;;;;;;;;2.75;2.25;;;;;13.75;60.56;101032.28;5082318;28;45521;-63
2023/03/12 09:32:04;;;;;;;;;10.25;5.00;;;;;13.75;60.68;101042.19;5063507;28;45362;-62
2023/03/12 09:34:29;;;;;;;;;8.25;3.00;;;;;13.64;60.88;101026.59;5081702;28;45395;-61
2023/03/12 09:36:55;;;;;;;;;2.00;2.00;;;;;13.74;61.08;101041.31;5082014;28;45359;-61
2023/03/12 09:39:21;;;;;;;;;3.50;2.50;;;;;13.79;61.58;101044.63;5092930;27;45582;-65
2023/03/12 09:41:47;;;;;;;;;3.50;2.75;;;;;13.86;60.63;101053.28;5102581;27;45439;-64
2023/03/12 09:44:29;;;;;;;;;3.25;2.00;;;;;13.87;60.39;101050.47;5102806;27;45272;-63
2023/03/12 09:46:59;;;;;;;;;2.00;2.00;;;;;13.89;60.37;101043.19;5102784;27;45401;-62
2023/03/12 09:49:45;;;;;;;;;3.00;2.75;;;;;13.93;60.27;101051.97;5084190;27;45313;-63
2023/03/12 09:52:26;;;;;;;;;5.00;2.00;;;;;13.98;60.64;101048.06;5082167;28;45351;-61
2023/03/12 09:55:21;;;;;;;;;4.00;3.00;;;;;14.06;59.92;101074.59;5081679;28;45385;-64
2023/03/12 09:57:50;;;;;;;;;5.00;2.50;;;;;14.13;59.28;101057.13;5083306;27;45416;-64
2023/03/12 10:00:19;;;;;;;;;4.50;2.50;;;;;14.20;59.05;101057.69;5102581;27;45371;-61
2023/03/12 10:03:03;;;;;;;;;5.00;3.00;;;;;14.11;57.70;101058.19;5101448;27;46253;-62
2023/03/12 10:05:52;;;;;;;;;2.25;2.25;;;;;14.19;57.07;101040.63;5102028;27;45404;-63
2023/03/12 10:08:36;;;;;;;;;3.50;1.50;;;;;14.19;56.25;101047.84;5102506;27;45477;-58
2023/03/12 10:11:14;;;;;;;;;5.00;2.00;;;;;14.16;55.94;101048.00;5101641;27;45514;-59
2023/03/12 10:13:59;;;;;;;;;5.50;3.00;;;;;14.23;56.15;101044.00;5102118;27;45464;-60
2023/03/12 10:16:53;;;;;;;;;3.25;2.00;;;;;14.29;56.34;101031.03;5102163;27;45231;-60
2023/03/12 10:19:36;;;;;;;;;4.00;2.25;;;;;14.34;56.82;101044.28;5101954;27;45232;-61
2023/03/12 10:22:31;;;;;;;;;4.00;3.00;;;;;14.24;57.44;101057.41;5100209;27;45458;-60
2023/03/12 10:25:07;;;;;;;;;2.25;1.00;;;;;14.27;57.02;101043.75;5073641;28;45346;-57
2023/03/12 10:27:35;;;;;;;;;5.00;2.00;;;;;14.29;56.81;101054.47;5081446;28;45237;-63
2023/03/12 10:30:12;;;;;;;;;1.25;1.25;;;;;14.38;57.05;101051.22;5081537;28;45428;-61
2023/03/12 10:32:45;;;;;;;;;2.00;2.00;;;;;14.40;56.62;101052.03;5081135;28;45523;-61
2023/03/12 10:35:17;;;;;;;;;4.25;2.25;;;;;14.45;56.02;101043.72;5081040;28;46184;-60
2023/03/12 10:37:46;;;;;;;;;6.00;3.00;;;;;14.49;55.85;101051.53;5081310;28;45228;-60
2023/03/12 10:40:18;;;;;;;;;3.50;3.50;;;;;14.49;55.61;101054.22;5080604;28;45276;-58
2023/03/12 10:42:43;;;;;;;;;6.25;2.00;;;;;14.40;56.01;101057.44;5081210;28;45255;-61
2023/03/12 10:45:09;;;;;;;;;7.00;1.00;;;;;14.48;56.85;101060.56;5079943;28;47182;-61
2023/03/12 10:47:41;;;;;;;;;5.00;2.00;;;;;14.46;56.94;101054.38;5081231;28;45264;-60
2023/03/12 10:50:25;;;;;;;;;4.25;2.00;;;;;14.48;56.61;101057.00;5067818;28;45333;-59
2023/03/12 10:53:10;;;;;;;;;4.50;3.00;;;;;14.37;56.83;101038.72;5080292;28;45387;-59
2023/03/12 10:55:35;;;;;;;;;7.00;4.00;;;;;14.40;56.84;101033.16;5081032;28;46402;-59
2023/03/12 10:58:00;;;;;;;;;5.75;3.00;;;;;14.40;56.51;101043.94;5080503;28;45274;-59
2023/03/12 11:00:29;;;;;;;;;2.50;2.00;;;;;14.43;56.04;101051.00;5080435;28;53807;-60
2023/03/12 11:03:03;;;;;;;;;2.25;2.00;;;;;14.42;56.03;101049.25;5080878;27;45525;-61
2023/03/12 11:05:30;;;;;;;;;9.25;3.00;;;;;14.43;55.78;101034.81;5079828;27;45273;-59
2023/03/12 11:07:58;;;;;;;;;8.00;3.00;;;;;14.44;55.97;101042.84;5080837;28;45390;-59
2023/03/12 11:10:37;;;;;;;;;5.00;1.50;;;;;14.47;56.11;101044.47;5080640;27;45447;-60
2023/03/12 11:13:18;;;;;;;;;6.25;3.00;;;;;14.50;56.35;101044.31;5080936;27;45544;-59
2023/03/12 11:15:44;;;;;;;;;4.50;2.25;;;;;14.51;55.67;101029.84;5080441;27;45473;-60
2023/03/12 11:18:21;;;;;;;;;3.00;3.00;;;;;14.67;55.45;101038.81;5079937;27;45431;-60
2023/03/12 11:20:49;;;;;;;;;5.50;1.25;;;;;14.62;55.28;101027.41;5080527;27;45508;-60
2023/03/12 11:23:42;;;;;;;;;4.50;2.00;;;;;14.68;55.10;101038.72;5074324;27;46394;-60
2023/03/12 11:26:16;;;;;;;;;3.00;3.00;;;;;14.76;55.03;101049.06;5066045;28;45431;-59
2023/03/12 11:28:48;;;;;;;;;3.75;2.75;;;;;14.67;54.91;101031.56;5080587;28;45509;-59
2023/03/12 11:31:30;;;;;;;;;4.50;3.00;;;;;14.70;55.09;101047.59;5079588;28;45340;-60
2023/03/12 11:34:04;;;;;;;;;4.50;2.75;;;;;14.64;55.76;101037.13;5080181;28;45312;-59
2023/03/12 11:36:53;;;;;;;;;4.25;3.25;;;;;14.55;56.22;101048.47;5080225;28;46372;-61
2023/03/12 11:39:40;;;;;;;;;3.25;3.00;;;;;14.63;56.06;101046.19;5080234;28;45375;-61
2023/03/12 11:42:17;;;;;;;;;5.75;3.00;;;;;14.69;56.18;101045.00;5080500;28;45363;-62
2023/03/12 11:44:48;;;;;;;;;4.00;3.25;;;;;14.70;56.39;101042.22;5080456;28;45325;-60
2023/03/12 11:47:38;;;;;;;;;5.00;2.00;;;;;14.71;56.41;101049.34;5080318;28;45500;-59
2023/03/12 11:50:12;;;;;;;;;2.00;2.00;;;;;14.77;56.55;101043.59;5078928;28;45371;-62
2023/03/12 11:52:58;;;;;;;;;3.50;3.25;;;;;14.81;56.33;101036.16;5080287;28;45386;-62
2023/03/12 11:55:49;;;;;;;;;4.00;3.00;;;;;14.89;56.03;101039.28;5079086;28;45893;-60
2023/03/12 11:58:45;;;;;;;;;3.50;2.00;;;;;14.98;56.19;101037.84;5079819;28;45501;-61
2023/03/12 12:01:29;;;;;;;;;4.00;3.00;;;;;15.09;55.49;101028.16;5079898;28;45386;-58
2023/03/12 12:04:51;;;;;;;;;7.00;3.50;;;;;15.01;54.81;101037.69;5077298;28;45335;-65
2023/03/12 12:07:38;;;;;;;;;3.50;2.25;;;;;14.90;55.07;101032.03;5016465;28;45342;-62
2023/03/12 12:10:21;;;;;;;;;4.25;2.50;;;;;14.82;54.21;101034.31;5017001;28;46197;-60
2023/03/12 12:13:04;;;;;;;;;3.00;3.00;;;;;14.82;54.88;101028.94;5062482;28;45387;-61
2023/03/12 12:15:51;;;;;;;;;3.00;3.00;;;;;14.93;55.12;101015.69;5072619;28;45520;-58
2023/03/12 12:18:25;;;;;;;;;6.00;4.00;;;;;14.99;55.10;101024.28;5073384;28;45533;-61
2023/03/12 12:21:24;;;;;;;;;5.25;2.00;;;;;15.24;54.44;101017.38;5079477;28;45347;-61
2023/03/12 12:24:08;;;;;;;;;3.00;3.00;;;;;15.43;54.41;101004.50;5079331;28;45441;-61
2023/03/12 12:26:38;;;;;;;;;4.00;4.00;;;;;15.66;54.02;101008.50;5079707;28;45373;-62
2023/03/12 12:29:25;;;;;;;;;4.50;2.00;;;;;15.84;53.24;101010.03;5079563;28;45498;-62
2023/03/12 12:31:56;;;;;;;;;10.00;3.50;;;;;16.00;54.22;100986.47;5079341;28;45396;-62
2023/03/12 12:34:43;;;;;;;;;2.50;2.50;;;;;16.06;52.60;100985.22;5079379;28;45390;-64
2023/03/12 12:37:19;;;;;;;;;3.25;2.25;;;;;16.06;53.12;100977.09;5079403;28;45372;-61
2023/03/12 12:40:07;;;;;;;;;4.00;4.00;;;;;16.28;52.16;100964.75;5078916;28;45344;-61
2023/03/12 12:42:40;;;;;;;;;5.00;3.50;;;;;16.37;50.74;100957.88;5074210;28;46511;-60
2023/03/12 12:45:11;;;;;;;;;5.50;3.25;;;;;16.32;49.84;100961.88;5076364;28;45378;-61
2023/03/12 12:47:47;;;;;;;;;7.50;1.25;;;;;16.23;49.25;100958.81;5076613;28;45474;-64
2023/03/12 12:50:18;;;;;;;;;2.50;2.00;;;;;16.24;48.76;100956.97;5075685;28;45435;-60
2023/03/12 12:52:49;;;;;;;;;4.00;2.00;;;;;16.30;47.95;100947.56;5077522;28;46123;-60
2023/03/12 12:55:28;;;;;;;;;0.00;0.00;;;;;16.30;48.39;100953.84;5078153;28;45186;-59
2023/03/12 12:58:00;;;;;;;;;1.50;1.50;;;;;16.64;49.08;100952.50;5077610;28;45678;-61
2023/03/12 13:00:42;;;;;;;;;2.75;1.00;;;;;16.90;48.62;100959.72;5073967;28;45645;-60
2023/03/12 13:03:16;;;;;;;;;5.75;2.25;;;;;17.70;47.08;100945.00;5077124;28;45379;-63
2023/03/12 13:06:01;;;;;;;;;8.00;2.75;;;;;18.11;45.47;100950.13;5075632;28;45483;-63
2023/03/12 13:08:38;;;;;;;;;5.00;2.00;;;;;18.22;45.84;100954.72;5077157;28;45482;-64
2023/03/12 13:11:22;;;;;;;;;4.00;2.50;;;;;17.76;45.68;100931.00;5076677;28;45585;-66
2023/03/12 13:13:49;;;;;;;;;3.00;1.25;;;;;17.71;45.80;100930.47;5077612;28;46499;-65
2023/03/12 13:16:44;;;;;;;;;3.50;1.50;;;;;17.66;45.99;100927.22;5076643;28;45173;-62
2023/03/12 13:19:12;;;;;;;;;2.75;2.75;;;;;17.49;46.23;100926.69;5076579;28;45399;-63
2023/03/12 13:22:03;;;;;;;;;6.00;2.50;;;;;17.33;46.64;100922.34;5075695;28;45508;-64
2023/03/12 13:24:50;;;;;;;;;5.25;4.00;;;;;17.44;46.51;100937.00;5074843;28;45320;-65
2023/03/12 13:27:23;;;;;;;;;4.75;2.00;;;;;18.13;45.97;100928.28;5077768;28;45430;-64
2023/03/12 13:29:55;;;;;;;;;3.25;1.75;;;;;18.83;45.11;100933.84;5078717;28;45500;-65
2023/03/12 13:32:33;;;;;;;;;5.00;2.00;;;;;19.05;44.41;100920.34;5074840;28;46066;-64
2023/03/12 13:34:58;;;;;;;;;4.00;2.75;;;;;19.13;44.28;100936.03;5078410;28;46366;-65
2023/03/12 13:38:07;;;;;;;;;2.50;2.00;;;;;18.78;44.13;100949.63;5078359;28;45427;-65
2023/03/12 13:40:50;;;;;;;;;2.75;2.75;;;;;18.57;44.47;100940.41;5058856;28;45395;-67
2023/03/12 13:43:32;;;;;;;;;1.50;1.00;;;;;18.12;44.61;100915.69;5073869;28;45570;-60
2023/03/12 13:46:00;;;;;;;;;3.25;3.25;;;;;17.88;46.00;100931.06;5072319;28;45708;-60
2023/03/12 13:48:26;;;;;;;;;4.75;3.25;;;;;17.85;46.61;100926.75;5078229;28;45352;-60
2023/03/12 13:50:58;;;;;;;;;1.25;1.25;;;;;17.92;46.53;100930.75;5078082;28;45591;-59
2023/03/12 13:53:27;;;;;;;;;4.75;3.00;;;;;17.98;46.37;100919.44;5071276;28;45293;-61
2023/03/12 13:56:03;;;;;;;;;7.25;2.75;;;;;17.72;46.89;100909.63;5078041;28;46215;-60
2023/03/12 13:58:29;;;;;;;;;4.25;3.00;;;;;17.34;47.12;100923.22;5080893;28;45463;-60
2023/03/12 14:01:01;;;;;;;;;1.25;1.25;;;;;17.13;47.88;100911.19;5082122;28;45343;-62
2023/03/12 14:03:32;;;;;;;;;2.00;2.00;;;;;17.48;48.47;100900.53;5081676;28;45387;-59
2023/03/12 14:06:04;;;;;;;;;4.00;1.00;;;;;17.84;46.93;100886.19;5080579;28;45391;-61
2023/03/12 14:08:40;;;;;;;;;3.75;3.00;;;;;17.85;46.96;100898.78;5081440;27;45534;-60
2023/03/12 14:11:23;;;;;;;;;2.25;2.25;;;;;17.93;46.52;100905.38;5071128;28;45401;-61
2023/03/12 14:14:30;;;;;;;;;7.00;2.50;;;;;17.92;46.72;100894.63;5077512;28;45406;-60
2023/03/12 14:17:10;;;;;;;;;3.00;2.75;;;;;17.86;46.67;100886.94;5025542;28;45433;-59
2023/03/12 14:19:45;;;;;;;;;4.25;2.25;;;;;17.76;47.63;100901.19;5081262;28;45410;-61
2023/03/12 14:22:12;;;;;;;;;1.25;1.00;;;;;17.48;48.43;100896.00;5081254;28;45419;-59
2023/03/12 14:24:49;;;;;;;;;3.50;2.00;;;;;17.48;48.59;100889.69;5074052;27;45553;-61
2023/03/12 14:27:20;;;;;;;;;3.25;2.00;;;;;18.06;48.36;100894.44;5079448;28;46825;-60
2023/03/12 14:30:02;;;;;;;;;1.50;1.25;;;;;18.37;46.83;100885.72;5080780;28;45494;-61
2023/03/12 14:32:31;;;;;;;;;8.00;2.75;;;;;18.46;46.87;100887.75;5057767;28;45487;-59
2023/03/12 14:35:28;;;;;;;;;1.50;0.00;;;;;18.46;46.32;100879.59;5080267;27;45316;-61
2023/03/12 14:38:09;;;;;;;;;3.00;3.00;;;;;18.70;45.62;100889.59;5071940;27;45939;-59
2023/03/12 14:40:45;;;;;;;;;6.00;2.00;;;;;18.69;45.64;100879.72;5076561;27;45306;-71
2023/03/12 14:43:32;;;;;;;;;4.00;2.00;;;;;18.62;45.41;100873.03;5075139;27;45466;-60
2023/03/12 14:46:00;;;;;;;;;4.25;2.00;;;;;18.74;45.20;100862.06;5080849;28;45482;-61
2023/03/12 14:48:31;;;;;;;;;3.50;2.25;;;;;19.49;43.97;100873.31;5080822;27;46047;-61
2023/03/12 14:50:59;;;;;;;;;2.25;2.25;;;;;19.49;42.69;100859.72;5079939;27;45360;-61
2023/03/12 14:53:28;;;;;;;;;3.75;3.75;;;;;19.92;42.70;100876.09;5081314;28;45653;-61
2023/03/12 14:56:08;;;;;;;;;2.25;2.25;;;;;20.05;41.69;100881.41;5080636;27;45467;-58
2023/03/12 14:58:42;;;;;;;;;2.75;2.50;;;;;19.89;41.77;100883.66;5080469;28;46202;-61
2023/03/12 15:01:13;;;;;;;;;4.00;2.00;;;;;19.98;41.79;100882.91;5080698;27;45443;-61
2023/03/12 15:03:46;;;;;;;;;1.50;1.50;;;;;20.29;42.16;100870.31;5080848;27;45257;-61
2023/03/12 15:06:25;;;;;;;;;0.50;0.50;;;;;20.23;41.82;100876.28;5078751;27;45609;-58
2023/03/12 15:08:50;;;;;;;;;1.00;1.00;;;;;20.05;41.58;100883.25;5076345;27;45839;-63
2023/03/12 15:11:22;;;;;;;;;2.50;2.00;;;;;19.59;42.54;100881.59;5072813;27;45326;-62
2023/03/12 15:13:48;;;;;;;;;4.50;3.00;;;;;19.47;42.91;100861.72;5073930;27;45751;-63
2023/03/12 15:16:14;;;;;;;;;3.25;2.00;;;;;19.30;43.70;100858.59;5079473;27;45436;-62
2023/03/12 15:18:40;;;;;;;;;1.25;1.25;;;;;19.09;44.39;100872.88;5079776;27;46260;-62
2023/03/12 15:21:06;;;;;;;;;0.50;0.50;;;;;18.79;44.94;100856.31;5080235;27;45379;-62
2023/03/12 15:23:35;;;;;;;;;3.00;1.00;;;;;18.60;45.74;100865.00;5080028;27;45312;-62
2023/03/12 15:26:18;;;;;;;;;2.25;1.00;;;;;18.52;46.03;100865.56;5077616;28;46559;-62
2023/03/12 15:28:54;;;;;;;;;3.75;2.00;;;;;18.38;46.11;100857.59;5078142;27;45588;-59
2023/03/12 15:31:19;;;;;;;;;2.75;2.75;;;;;18.35;46.35;100857.00;5078722;28;45367;-59
2023/03/12 15:34:02;;;;;;;;;2.75;2.00;;;;;18.49;46.54;100856.78;5078718;28;50900;-58
2023/03/12 15:36:29;;;;;;;;;2.00;0.75;;;;;18.62;46.17;100854.91;5080114;28;45323;-59
2023/03/12 15:39:04;;;;;;;;;4.00;4.00;;;;;18.48;46.38;100842.34;5056701;28;46816;-59
2023/03/12 15:41:44;;;;;;;;;4.25;3.00;;;;;18.49;46.76;100841.38;5077891;28;45368;-60
2023/03/12 15:44:18;;;;;;;;;4.00;2.00;;;;;18.44;46.85;100848.13;5079661;28;45286;-60
2023/03/12 15:46:46;;;;;;;;;2.00;2.00;;;;;18.19;47.19;100849.16;5079804;28;45415;-60
2023/03/12 15:49:22;;;;;;;;;4.00;0.00;;;;;18.05;47.67;100841.16;5078977;27;46532;-58
2023/03/12 15:52:05;;;;;;;;;2.75;2.00;;;;;18.05;48.18;100843.88;5078924;27;45424;-61
2023/03/12 15:54:31;;;;;;;;;2.00;2.00;;;;;18.14;47.58;100849.47;5079496;28;45252;-58
2023/03/12 15:57:20;;;;;;;;;4.00;1.50;;;;;18.12;48.07;100834.28;5079364;28;45875;-60
2023/03/12 16:00:12;;;;;;;;;1.00;1.00;;;;;18.01;47.56;100851.41;5067008;28;45411;-59
2023/03/12 16:02:38;;;;;;;;;1.00;1.00;;;;;17.90;47.37;100845.91;5078951;28;45222;-60
2023/03/12 16:05:03;;;;;;;;;5.75;2.50;;;;;17.71;47.79;100859.97;5077379;28;45353;-60
2023/03/12 16:07:29;;;;;;;;;5.00;1.50;;;;;17.50;48.08;100837.13;5078794;28;45549;-61
2023/03/12 16:09:54;;;;;;;;;6.00;1.25;;;;;17.38;48.29;100838.88;5079507;28;45302;-61
2023/03/12 16:12:20;;;;;;;;;2.00;2.00;;;;;17.20;49.18;100833.91;5078423;27;45395;-61
2023/03/12 16:14:47;;;;;;;;;2.25;2.25;;;;;17.09;49.18;100826.56;5079777;27;45504;-61
2023/03/12 16:17:16;;;;;;;;;5.00;3.25;;;;;17.15;49.26;100828.84;5079304;27;45316;-63
2023/03/12 16:19:42;;;;;;;;;4.50;2.75;;;;;17.11;49.90;100826.44;5077651;27;45452;-64
2023/03/12 16:22:07;;;;;;;;;3.00;2.00;;;;;17.05;50.04;100826.88;5079281;28;45457;-71
2023/03/12 16:24:33;;;;;;;;;3.75;2.75;;;;;16.70;50.92;100826.66;5073586;27;45472;-59
2023/03/12 16:26:58;;;;;;;;;6.00;3.00;;;;;16.73;50.92;100821.91;5079481;28;45232;-59
2023/03/12 16:29:36;;;;;;;;;3.75;2.25;;;;;16.74;51.23;100811.94;5079228;27;46888;-60
2023/03/12 16:32:08;;;;;;;;;5.50;2.75;;;;;16.74;51.60;100809.25;5078885;28;45285;-59
2023/03/12 16:34:33;;;;;;;;;3.00;1.75;;;;;16.70;51.16;100800.47;5078664;28;45414;-60
2023/03/12 16:36:58;;;;;;;;;2.25;2.25;;;;;16.48;52.61;100811.03;5078924;28;45319;-59
2023/03/12 16:39:29;;;;;;;;;4.75;2.00;;;;;16.40;53.03;100818.81;5078485;28;46096;-59
2023/03/12 16:41:54;;;;;;;;;4.25;3.00;;;;;16.15;53.72;100803.41;5079085;27;45358;-60
2023/03/12 16:44:20;;;;;;;;;4.00;3.00;;;;;16.17;53.64;100823.06;5079146;28;45350;-60
2023/03/12 16:46:46;;;;;;;;;5.50;3.00;;;;;16.18;53.97;100814.84;5078769;28;45458;-59